Airfield :
LOGIN :

Register | Disclaimer

   EN    FR    IT 

 










Legend :    VFR   Marginal VFR   IFR   Intensive IFR   Very Intensive IFR
Visi :
Ceiling :
>= 8 km
>= 3000ft
5 to 8 km
1000 to 3000 ft
1500m to 5 km
500 to 1000 ft
800 to 1500m
200 to 500 ft
< 800m
< 200 ft
Symbols :   Thunderstorms  Fog  Heavy snow  Heavy precipitations  Wind > 20 kt
SIGMETs :     Misc.  Thunderstorms  Icing  Turbulence  Mountain Waves  Volcanic Ashes






- Airport Elevation : 33 ft
- IATA code : PLQ


EYPA - Palanga

CURRENT METAR :
  • 211720Z 08006KT 050V120 CAVOK 22/14 Q1017

EXPIRED METARs :
  • 211650Z 08004KT CAVOK 22/14 Q1016
  • 211620Z 05004KT CAVOK 22/15 Q1016
  • 211550Z 10004KT 070V130 CAVOK 21/14 Q1017
  • 211520Z 13005KT 9999 TS BKN063CB 21/15 Q1017
  • 211450Z 09003KT 9999 TS FEW063CB 20/15 Q1017
  • 211420Z 08003KT 020V130 9999 TSRA SCT041CB 20/14 Q1017
  • 211350Z 08007KT 050V130 9999 -TSRA FEW053CB 22/14 Q1017
  • 211320Z 07007KT 030V110 CAVOK 24/11 Q1017
  • 211250Z 05009KT 360V130 CAVOK 25/11 Q1017
  • 211220Z 09008KT 050V130 9999 FEW033 24/12 Q1017

TAF TAF EYPA
Valid from the 21 at 18:00 until the 22 at 18:00 UTC


211703Z 2118/2218 VRB05KT 8000 NSC
TEMPO 2118/2122 VRB15KT 5000 TSRA SCT045CB
BECMG 2204/2206 09015KT
TEMPO 2209/2218 09015G25KT BKN045CB



MET'MAP, your aeronautical weather chart ! - Copyright ORBIFLY December 2007 - Disclaimer

ORBIFLY MET'MAP TEAM :

Programming & Development : Alexandra Zaïnal
Original concept : Baudouin d'Aumeries
Technical & hardware support : Manuel Goepfert
Assistance : Marc-Olivier Méhu




SOURCES & CREDITS :

   NOAA